Time;durP1;ratioP1;P1;durP2;ratioP2;P2;SDS_P1;SDS_P2;PMS_P1;PMS_P2;Temp;Humidity;BMP_temperature;BMP_pressure;BME280_temperature;BME280_humidity;BME280_pressure;Samples;Min_cycle;Max_cycle;Signal;HPM_P1;HPM_P2
2022/08/06 00:02:01;;;;;;;11.50;10.30;;;;;;;19.59;64.13;97031.39;1773240;80;28073;-77
2022/08/06 00:04:28;;;;;;;12.70;10.70;;;;;;;19.41;64.25;97030.60;1694276;84;25949;-77
2022/08/06 00:06:54;;;;;;;11.57;10.40;;;;;;;19.34;64.47;97026.77;1773280;80;25855;-76
2022/08/06 00:09:21;;;;;;;12.25;10.93;;;;;;;19.35;64.53;97037.98;1694533;83;26151;-76
2022/08/06 00:11:47;;;;;;;12.13;10.93;;;;;;;19.36;64.61;97033.33;1773198;80;25345;-76
2022/08/06 00:14:14;;;;;;;14.03;11.55;;;;;;;19.35;64.67;97028.95;1694537;84;27453;-77
2022/08/06 00:16:40;;;;;;;13.80;11.43;;;;;;;19.35;64.73;97031.69;1773175;80;25692;-77
2022/08/06 00:19:07;;;;;;;11.68;10.48;;;;;;;19.29;64.86;97024.05;1694513;84;25840;-77
2022/08/06 00:21:33;;;;;;;11.83;10.63;;;;;;;19.25;65.03;97033.08;1773091;80;25804;-77
2022/08/06 00:24:00;;;;;;;16.27;11.22;;;;;;;19.14;65.08;97034.19;1694735;84;25735;-77
2022/08/06 00:26:26;;;;;;;12.88;11.50;;;;;;;19.02;65.28;97033.92;1773073;80;28106;-77
2022/08/06 00:28:53;;;;;;;12.55;11.25;;;;;;;19.01;65.46;97033.64;1694480;84;25621;-76
2022/08/06 00:31:20;;;;;;;12.58;11.38;;;;;;;18.95;65.56;97036.13;1773282;80;25710;-77
2022/08/06 00:33:46;;;;;;;12.53;11.22;;;;;;;18.91;65.72;97030.91;1694634;84;25771;-76
2022/08/06 00:36:13;;;;;;;13.45;11.22;;;;;;;18.93;65.78;97033.38;1773172;80;25918;-76
2022/08/06 00:38:39;;;;;;;11.33;9.98;;;;;;;18.93;65.80;97032.84;1699380;84;28285;-77
2022/08/06 00:41:06;;;;;;;11.63;10.58;;;;;;;18.94;65.85;97035.84;1702855;84;25873;-77
2022/08/06 00:43:34;;;;;;;11.30;10.20;;;;;;;18.92;65.89;97032.56;1723284;83;25729;-77
2022/08/06 00:46:00;;;;;;;11.68;10.48;;;;;;;18.92;65.81;97039.40;1745840;82;25661;-77
2022/08/06 00:48:27;;;;;;;12.95;10.50;;;;;;;18.92;65.78;97046.23;1726349;83;25981;-77
2022/08/06 00:50:53;;;;;;;11.68;10.55;;;;;;;18.91;65.77;97044.59;1745855;81;27348;-77
2022/08/06 00:53:20;;;;;;;11.97;10.25;;;;;;;18.90;65.76;97042.95;1745815;82;25671;-77
2022/08/06 00:55:46;;;;;;;11.80;10.15;;;;;;;18.89;65.83;97045.41;1726264;83;25233;-78
2022/08/06 00:58:13;;;;;;;11.63;10.30;;;;;;;18.88;65.86;97039.66;1745958;82;26438;-77
2022/08/06 01:00:40;;;;;;;13.13;10.60;;;;;;;18.86;65.88;97044.58;1725922;83;25882;-77
2022/08/06 01:03:07;;;;;;;11.10;10.00;;;;;;;18.84;65.92;97039.09;1745779;82;28122;-77
2022/08/06 01:05:34;;;;;;;11.75;9.75;;;;;;;18.82;65.96;97038.58;1726064;83;25805;-76
2022/08/06 01:08:00;;;;;;;13.08;10.30;;;;;;;18.77;66.00;97036.65;1727116;83;25703;-77
2022/08/06 01:10:27;;;;;;;11.50;10.30;;;;;;;18.76;66.04;97039.10;1745621;82;26572;-76
2022/08/06 01:12:54;;;;;;;10.70;9.60;;;;;;;18.75;66.14;97036.09;1726131;83;25699;-77
2022/08/06 01:15:20;;;;;;;11.48;10.40;;;;;;;18.70;66.20;97038.84;1726284;83;27438;-76
2022/08/06 01:18:01;;;;;;;11.12;10.03;;;;;;;18.68;66.24;97042.39;1745806;81;25689;-76
2022/08/06 01:20:44;;;;;;;11.38;9.28;;;;;;;18.64;66.30;97041.28;1724393;83;25794;-77
2022/08/06 01:23:58;;;;;;;14.93;10.28;;;;;;;18.61;66.40;97037.71;1726059;83;26491;-77
2022/08/06 01:26:51;;;;;;;11.28;9.30;;;;;;;18.58;66.49;97031.45;1746031;82;25688;-77
2022/08/06 01:29:32;;;;;;;11.12;10.00;;;;;;;18.54;66.62;97031.67;1744543;82;27461;-77
2022/08/06 01:32:15;;;;;;;12.63;10.32;;;;;;;18.40;66.68;97034.10;1724249;83;25732;-76
2022/08/06 01:34:53;;;;;;;11.33;10.23;;;;;;;18.30;66.86;97033.54;1743050;82;26778;-76
2022/08/06 01:37:48;;;;;;;10.98;9.83;;;;;;;18.30;67.01;97040.91;1686975;84;26478;-77
2022/08/06 01:40:23;;;;;;;11.28;10.18;;;;;;;18.31;67.06;97043.37;1685181;84;25435;-77
2022/08/06 01:42:52;;;;;;;11.75;10.00;;;;;;;18.32;67.04;97040.92;1627675;88;28190;-76
2022/08/06 01:45:22;;;;;;;11.35;10.28;;;;;;;18.33;66.95;97035.74;1616060;88;25782;-76
2022/08/06 01:47:53;;;;;;;11.73;10.60;;;;;;;18.33;66.97;97036.28;1627664;88;25884;-76
2022/08/06 01:50:25;;;;;;;12.05;10.95;;;;;;;18.32;66.97;97034.64;1627726;88;25695;-77
2022/08/06 01:52:54;;;;;;;12.20;9.75;;;;;;;18.31;66.98;97036.55;1627964;88;25824;-76
2022/08/06 01:55:22;;;;;;;14.53;10.55;;;;;;;18.30;67.00;97037.64;1627695;88;27477;-76
2022/08/06 01:57:55;;;;;;;12.43;9.53;;;;;;;18.28;66.99;97031.62;1606108;88;25756;-77
2022/08/06 02:00:22;;;;;;;12.35;11.15;;;;;;;18.27;66.94;97031.34;1606205;88;25991;-76
2022/08/06 02:02:51;;;;;;;11.53;10.35;;;;;;;18.26;66.99;97033.79;1627742;88;25871;-76
2022/08/06 02:05:20;;;;;;;12.58;10.45;;;;;;;18.22;67.04;97027.24;1627479;88;25358;-77
2022/08/06 02:07:50;;;;;;;12.20;10.90;;;;;;;18.17;67.14;97034.05;1627698;88;27384;-76
2022/08/06 02:10:19;;;;;;;10.40;9.50;;;;;;;18.15;67.21;97033.48;1627614;88;25326;-76
2022/08/06 02:12:48;;;;;;;11.57;10.38;;;;;;;18.13;67.23;97030.20;1627727;88;25794;-76
2022/08/06 02:15:20;;;;;;;11.40;10.30;;;;;;;18.12;67.29;97031.28;1627560;88;25905;-76
2022/08/06 02:17:53;;;;;;;11.63;10.43;;;;;;;18.10;67.28;97021.74;1547164;92;25913;-76
2022/08/06 02:20:25;;;;;;;12.40;10.32;;;;;;;18.07;67.36;97020.36;1539498;93;27570;-77
2022/08/06 02:22:53;;;;;;;12.05;10.85;;;;;;;18.05;67.39;97025.27;1477226;96;26115;-76
2022/08/06 02:25:21;;;;;;;11.80;10.70;;;;;;;18.03;67.42;97019.79;1478805;95;26023;-76
2022/08/06 02:27:51;;;;;;;11.57;10.38;;;;;;;18.02;67.43;97021.70;1497244;94;26728;-76
2022/08/06 02:30:18;;;;;;;12.20;10.10;;;;;;;18.00;67.42;97023.33;1497204;94;25967;-76
2022/08/06 02:32:45;;;;;;;10.72;9.63;;;;;;;17.98;67.47;97028.80;1500322;92;28158;-76
2022/08/06 02:35:12;;;;;;;11.50;9.80;;;;;;;17.94;67.56;97027.14;1536708;92;25588;-76
2022/08/06 02:37:49;;;;;;;11.40;9.93;;;;;;;17.88;67.67;97024.64;1536934;92;25847;-76
2022/08/06 02:40:27;;;;;;;12.50;10.15;;;;;;;17.74;67.76;97030.34;1544768;91;26017;-76
2022/08/06 02:42:59;;;;;;;11.10;10.03;;;;;;;17.67;68.03;97032.47;1579068;90;27206;-76
2022/08/06 02:45:45;;;;;;;10.32;9.40;;;;;;;17.68;68.09;97028.66;1576042;90;26932;-76
2022/08/06 02:48:28;;;;;;;13.72;10.40;;;;;;;17.68;68.11;97034.12;1575352;91;25879;-76
2022/08/06 02:50:57;;;;;;;11.40;10.20;;;;;;;17.67;68.10;97033.83;1554655;91;25788;-76
2022/08/06 02:53:29;;;;;;;10.82;9.73;;;;;;;17.68;68.10;97045.03;1575372;91;25748;-77
2022/08/06 02:56:01;;;;;;;11.12;10.03;;;;;;;17.68;68.11;97050.49;1580964;90;25583;-76
2022/08/06 02:58:44;;;;;;;11.93;10.80;;;;;;;17.68;68.19;97051.86;1503708;95;27654;-76
2022/08/06 03:01:15;;;;;;;11.78;10.58;;;;;;;17.61;68.29;97054.27;1527305;93;25570;-76
2022/08/06 03:03:45;;;;;;;11.53;10.23;;;;;;;17.45;68.42;97055.25;1528045;93;25352;-77
2022/08/06 03:06:15;;;;;;;12.55;10.68;;;;;;;17.40;68.86;97057.11;1527704;92;26568;-76
2022/08/06 03:08:43;;;;;;;13.68;11.15;;;;;;;17.30;68.90;97057.88;1527566;93;25863;-76
2022/08/06 03:11:11;;;;;;;12.85;11.65;;;;;;;17.17;69.07;97057.78;1527718;93;27521;-76
2022/08/06 03:13:39;;;;;;;13.78;11.55;;;;;;;17.09;69.33;97064.27;1530964;91;25327;-76
2022/08/06 03:16:07;;;;;;;11.80;10.60;;;;;;;16.95;69.52;97073.96;1578163;90;25888;-76
2022/08/06 03:18:36;;;;;;;13.30;11.65;;;;;;;16.83;69.84;97074.95;1578684;86;26518;-77
2022/08/06 03:21:04;;;;;;;12.73;11.43;;;;;;;16.85;70.06;97079.61;1658961;86;25370;-76
2022/08/06 03:23:32;;;;;;;19.45;12.10;;;;;;;16.92;70.12;97075.30;1658920;86;27443;-76
2022/08/06 03:26:00;;;;;;;13.03;11.68;;;;;;;16.92;70.25;97073.39;1657778;86;25845;-77
2022/08/06 03:28:28;;;;;;;13.13;11.83;;;;;;;16.87;70.38;97073.91;1649290;86;36160;-76
2022/08/06 03:30:56;;;;;;;12.80;11.48;;;;;;;16.84;70.46;97079.33;1659083;86;25693;-76
2022/08/06 03:33:24;;;;;;;14.33;12.40;;;;;;;16.87;70.65;97086.17;1658799;86;25396;-76
2022/08/06 03:35:54;;;;;;;13.05;11.65;;;;;;;16.82;70.81;97081.48;1659097;86;27451;-76
2022/08/06 03:38:23;;;;;;;13.20;11.35;;;;;;;16.82;70.86;97089.66;1658743;86;25827;-76
2022/08/06 03:40:50;;;;;;;12.45;11.20;;;;;;;16.87;70.84;97095.17;1657692;86;25370;-77
2022/08/06 03:43:17;;;;;;;12.95;11.55;;;;;;;16.93;70.77;97099.58;1657963;86;26354;-77
2022/08/06 03:45:52;;;;;;;14.33;12.00;;;;;;;16.98;70.71;97099.35;1657889;86;25815;-76
2022/08/06 03:48:24;;;;;;;14.05;11.93;;;;;;;17.00;70.81;97102.11;1658068;86;28966;-76
2022/08/06 03:50:53;;;;;;;14.87;12.30;;;;;;;16.98;70.79;97101.54;1657856;86;25551;-76
2022/08/06 03:53:26;;;;;;;13.15;11.65;;;;;;;17.02;70.80;97105.94;1658005;86;25755;-76
2022/08/06 03:55:58;;;;;;;;;;;;;;;17.05;70.77;97112.22;1722107;82;25877;-76
2022/08/06 03:58:27;;;;;;;13.55;12.00;;;;;;;17.06;71.15;97109.23;1744883;82;25627;-77
2022/08/06 04:01:06;;;;;;;15.15;11.90;;;;;;;17.07;70.83;97112.78;1744762;82;27394;-76
2022/08/06 04:03:36;;;;;;;12.23;11.12;;;;;;;17.09;70.89;97124.26;1742318;82;25655;-77
2022/08/06 04:06:04;;;;;;;13.22;11.83;;;;;;;17.06;70.94;97122.05;1744455;82;25679;-77
2022/08/06 04:08:34;;;;;;;14.60;11.75;;;;;;;17.08;70.95;97127.53;1744569;82;25767;-76
2022/08/06 04:11:01;;;;;;;13.53;12.23;;;;;;;17.11;70.98;97132.47;1744787;82;25652;-76
2022/08/06 04:13:29;;;;;;;14.13;12.40;;;;;;;17.15;70.99;97136.84;1744644;82;28261;-77
2022/08/06 04:15:56;;;;;;;15.45;12.18;;;;;;;17.18;71.13;97129.52;1744493;82;25977;-76
2022/08/06 04:18:27;;;;;;;15.15;13.62;;;;;;;17.20;71.17;97134.17;1744410;82;25703;-76
2022/08/06 04:20:58;;;;;;;18.98;15.23;;;;;;;17.23;71.19;97144.57;1639363;87;25910;-74
2022/08/06 04:23:24;;;;;;;18.50;16.05;;;;;;;17.27;71.35;97145.14;1639826;87;25829;-74
2022/08/06 04:25:55;;;;;;;17.87;15.83;;;;;;;17.27;71.34;97141.05;1639846;87;27409;-74
2022/08/06 04:28:25;;;;;;;17.48;14.87;;;;;;;17.31;71.36;97150.91;1639636;87;26702;-74
2022/08/06 04:30:53;;;;;;;15.00;13.45;;;;;;;17.35;71.42;97160.77;1639643;87;25900;-74
2022/08/06 04:33:22;;;;;;;15.15;13.55;;;;;;;17.37;71.44;97159.42;1639719;87;26287;-74
2022/08/06 04:35:50;;;;;;;17.95;14.68;;;;;;;17.40;71.32;97168.43;1639750;87;25942;-74
2022/08/06 04:38:18;;;;;;;16.32;14.50;;;;;;;17.46;71.37;97174.77;1639682;87;27471;-74
2022/08/06 04:40:45;;;;;;;15.03;13.05;;;;;;;17.48;71.36;97174.80;1638579;86;25940;-74
2022/08/06 04:43:13;;;;;;;15.65;13.93;;;;;;;17.53;71.45;97176.72;1661609;86;25318;-74
2022/08/06 04:45:42;;;;;;;15.60;12.80;;;;;;;17.56;71.51;97182.48;1661480;86;25807;-74
2022/08/06 04:48:11;;;;;;;14.58;13.18;;;;;;;17.58;71.66;97191.24;1661460;86;26647;-74
2022/08/06 04:50:39;;;;;;;14.55;13.05;;;;;;;17.59;71.83;97199.71;1661660;86;27487;-74
2022/08/06 04:53:13;;;;;;;16.07;13.65;;;;;;;17.60;71.92;97191.81;1661504;86;25739;-74
2022/08/06 04:55:42;;;;;;;15.93;14.30;;;;;;;17.62;72.11;97196.47;1621815;88;25884;-74
2022/08/06 04:58:11;;;;;;;15.70;14.20;;;;;;;17.67;72.10;97194.88;1621764;88;25682;-74
2022/08/06 05:00:42;;;;;;;15.45;13.88;;;;;;;17.71;72.28;97196.83;1621726;88;26831;-74
2022/08/06 05:03:09;;;;;;;18.05;14.30;;;;;;;17.74;72.37;97211.33;1621604;88;27413;-75
2022/08/06 05:05:39;;;;;;;17.52;15.58;;;;;;;17.78;72.41;97221.16;1621662;88;25518;-74
2022/08/06 05:08:07;;;;;;;16.67;15.03;;;;;;;17.83;72.38;97219.84;1621466;88;25843;-75
2022/08/06 05:10:39;;;;;;;17.87;14.85;;;;;;;17.88;72.37;97227.52;1621579;88;25853;-75
2022/08/06 05:13:09;;;;;;;20.88;15.38;;;;;;;17.93;72.39;97232.20;1566891;90;25776;-74
2022/08/06 05:15:41;;;;;;;17.50;15.60;;;;;;;17.98;72.54;97236.34;1566869;90;27509;-75
2022/08/06 05:18:16;;;;;;;18.57;15.50;;;;;;;18.03;72.58;97233.63;1618262;87;25810;-74
2022/08/06 05:20:50;;;;;;;17.95;15.80;;;;;;;18.06;72.68;97238.58;1613689;88;25853;-75
2022/08/06 05:23:25;;;;;;;17.37;14.98;;;;;;;18.11;72.80;97245.45;1612669;88;25701;-74
2022/08/06 05:25:52;;;;;;;16.42;14.65;;;;;;;18.17;72.84;97256.68;1614791;88;25914;-75
2022/08/06 05:28:18;;;;;;;16.42;14.43;;;;;;;18.23;72.75;97247.98;1617210;88;27413;-75
2022/08/06 05:30:50;;;;;;;18.62;14.63;;;;;;;18.29;72.69;97250.47;1600428;88;25785;-74
2022/08/06 05:33:33;;;;;;;16.75;14.03;;;;;;;18.35;72.62;97249.40;1531197;93;25400;-75
2022/08/06 05:36:01;;;;;;;16.75;14.95;;;;;;;18.42;72.67;97260.66;1515677;93;25838;-74
2022/08/06 05:38:28;;;;;;;17.15;15.40;;;;;;;18.50;72.84;97261.51;1518531;93;25856;-75
2022/08/06 05:40:55;;;;;;;20.02;15.48;;;;;;;18.57;72.87;97268.94;1528591;92;27626;-75
2022/08/06 05:43:22;;;;;;;16.87;15.08;;;;;;;18.65;72.89;97273.92;1505200;95;26573;-75
2022/08/06 05:45:54;;;;;;;19.02;14.45;;;;;;;18.74;72.93;97278.33;1505430;95;25887;-74
2022/08/06 05:48:22;;;;;;;17.60;15.47;;;;;;;18.84;72.95;97279.20;1505607;95;25933;-75
2022/08/06 05:50:54;;;;;;;16.30;13.98;;;;;;;18.96;73.13;97283.07;1505536;95;26003;-75
2022/08/06 05:53:30;;;;;;;17.30;14.47;;;;;;;19.08;73.06;97288.34;1474545;96;28179;-75
2022/08/06 05:56:02;;;;;;;17.98;14.18;;;;;;;19.18;73.15;97293.84;1472436;97;25880;-74
2022/08/06 05:58:49;;;;;;;22.45;13.55;;;;;;;19.30;73.12;97302.64;1428540;100;25422;-76
2022/08/06 06:01:17;;;;;;;16.07;14.38;;;;;;;19.41;73.04;97301.56;1448283;97;25848;-75
2022/08/06 06:03:45;;;;;;;16.85;15.10;;;;;;;19.55;73.00;97310.94;1451444;97;25917;-75
2022/08/06 06:06:12;;;;;;;18.37;15.00;;;;;;;19.66;72.88;97318.08;1451279;98;27495;-75
2022/08/06 06:08:39;;;;;;;20.40;16.12;;;;;;;19.78;72.73;97328.23;1451255;97;25849;-74
2022/08/06 06:11:08;;;;;;;16.60;14.90;;;;;;;19.91;72.50;97319.20;1508663;93;25352;-75
2022/08/06 06:13:36;;;;;;;18.95;15.90;;;;;;;20.02;72.32;97338.66;1489129;95;25863;-75
2022/08/06 06:16:29;;;;;;;18.48;15.83;;;;;;;20.12;72.15;97338.11;1512733;94;25829;-75
2022/08/06 06:19:17;;;;;;;21.77;16.42;;;;;;;20.22;72.06;97346.05;1488873;95;28189;-75
2022/08/06 06:22:09;;;;;;;17.50;15.80;;;;;;;20.29;71.65;97338.36;1509097;93;25564;-75
2022/08/06 06:24:50;;;;;;;17.92;15.88;;;;;;;20.37;71.45;97348.82;1521086;92;25855;-74
2022/08/06 06:27:31;;;;;;;23.30;18.67;;;;;;;20.44;71.31;97354.29;1592247;89;25745;-75
2022/08/06 06:30:08;;;;;;;20.32;17.42;;;;;;;20.48;71.07;97357.31;1601320;88;26103;-74
2022/08/06 06:32:46;;;;;;;19.73;17.65;;;;;;;20.51;70.95;97366.91;1614755;88;28492;-74
2022/08/06 06:35:38;;;;;;;20.72;18.62;;;;;;;20.53;70.91;97372.37;1604096;89;25880;-76
2022/08/06 06:38:25;;;;;;;21.27;19.07;;;;;;;20.55;70.81;97378.95;1601936;89;26562;-75
2022/08/06 06:40:59;;;;;;;21.02;18.87;;;;;;;20.57;70.69;97382.25;1573660;90;25813;-75
2022/08/06 06:43:40;;;;;;;20.80;18.48;;;;;;;20.59;70.62;97388.28;1572111;91;25960;-75
2022/08/06 06:46:24;;;;;;;21.75;19.37;;;;;;;20.59;70.57;97396.51;1571009;91;27618;-75
2022/08/06 06:49:23;;;;;;;23.30;18.90;;;;;;;20.60;70.50;97400.89;1572117;91;25971;-75
2022/08/06 06:51:53;;;;;;;20.75;18.50;;;;;;;20.61;70.35;97395.14;1527288;93;25880;-75
2022/08/06 06:54:27;;;;;;;22.13;19.80;;;;;;;20.62;70.29;97389.93;1531060;88;25850;-75
2022/08/06 06:56:56;;;;;;;26.62;19.77;;;;;;;20.65;70.27;97396.79;1628097;87;25721;-75
2022/08/06 06:59:37;;;;;;;23.90;20.05;;;;;;;20.64;70.21;97399.26;1629841;88;27559;-75
2022/08/06 07:02:05;;;;;;;23.50;20.90;;;;;;;20.63;70.16;97413.52;1627583;88;25925;-75
2022/08/06 07:04:34;;;;;;;21.68;19.40;;;;;;;20.62;70.24;97418.73;1629864;88;25897;-75
2022/08/06 07:07:04;;;;;;;24.98;20.23;;;;;;;20.62;70.37;97423.39;1630244;88;26372;-75
2022/08/06 07:09:33;;;;;;;24.25;21.75;;;;;;;20.60;70.44;97428.32;1629922;88;25877;-75
2022/08/06 07:12:03;;;;;;;23.95;21.45;;;;;;;20.60;70.51;97433.80;1630027;87;28262;-75
2022/08/06 07:14:33;;;;;;;24.15;21.42;;;;;;;20.61;70.62;97434.08;1629846;88;25799;-75
2022/08/06 07:17:02;;;;;;;22.58;20.15;;;;;;;20.62;70.54;97439.84;1608070;88;25833;-75
2022/08/06 07:19:30;;;;;;;26.05;21.33;;;;;;;20.64;70.40;97443.96;1625307;88;25840;-75
2022/08/06 07:21:58;;;;;;;23.55;21.27;;;;;;;20.65;70.52;97446.16;1615036;84;25766;-75
2022/08/06 07:24:27;;;;;;;24.98;21.62;;;;;;;20.64;70.44;97447.25;1691554;84;27450;-75
2022/08/06 07:26:55;;;;;;;27.55;21.73;;;;;;;20.65;70.41;97448.32;1706217;84;25731;-75
2022/08/06 07:29:23;;;;;;;24.80;21.80;;;;;;;20.66;70.52;97450.52;1706143;84;25721;-75
2022/08/06 07:31:50;;;;;;;25.25;21.20;;;;;;;20.66;70.51;97456.00;1706232;84;26316;-75
2022/08/06 07:34:18;;;;;;;24.77;21.12;;;;;;;20.66;70.49;97451.89;1706185;84;25745;-75
2022/08/06 07:36:52;;;;;;;23.20;20.80;;;;;;;20.67;70.48;97466.70;1706109;84;27443;-75
2022/08/06 07:39:32;;;;;;;23.30;20.88;;;;;;;20.69;70.43;97459.03;1706489;83;25842;-75
2022/08/06 07:42:04;;;;;;;22.82;20.48;;;;;;;20.71;70.45;97469.18;1624484;88;25762;-75
2022/08/06 07:44:36;;;;;;;21.43;19.33;;;;;;;20.73;70.64;97473.02;1674904;85;26451;-75
2022/08/06 07:47:04;;;;;;;23.15;19.02;;;;;;;20.74;70.46;97480.16;1632362;87;26210;-75
2022/08/06 07:49:43;;;;;;;21.45;19.23;;;;;;;20.76;70.47;97480.72;1632288;87;27591;-75
2022/08/06 07:52:15;;;;;;;22.07;18.40;;;;;;;20.77;70.49;97483.73;1632433;87;25537;-75
2022/08/06 07:54:42;;;;;;;18.73;17.00;;;;;;;20.78;70.39;97490.84;1632359;87;25777;-75
2022/08/06 07:57:10;;;;;;;24.52;17.37;;;;;;;20.80;70.45;97483.16;1632517;87;25791;-75
2022/08/06 07:59:38;;;;;;;19.15;16.23;;;;;;;20.80;70.36;97492.21;1632393;87;25947;-76
2022/08/06 08:02:05;;;;;;;18.67;16.30;;;;;;;20.83;70.28;97490.84;1632412;87;27563;-75
2022/08/06 08:07:19;;;;;;;15.55;14.05;;;;;;;20.84;70.28;97494.69;1632379;87;26407;-75
2022/08/06 08:09:47;;;;;;;15.80;14.20;;;;;;;20.84;70.30;97498.81;1632516;87;25793;-75
2022/08/06 08:12:18;;;;;;;14.93;13.30;;;;;;;20.84;70.36;97503.47;1632548;87;25817;-75
2022/08/06 08:14:47;;;;;;;14.20;12.90;;;;;;;20.83;70.30;97506.77;1632158;87;27508;-75
2022/08/06 08:17:15;;;;;;;14.80;13.45;;;;;;;20.86;70.34;97506.77;1632102;87;25806;-75
2022/08/06 08:19:41;;;;;;;13.90;12.28;;;;;;;20.86;70.29;97509.52;1632337;87;25845;-75
2022/08/06 08:22:16;;;;;;;14.45;12.95;;;;;;;20.84;70.38;97513.07;1632491;87;25785;-75
2022/08/06 08:24:46;;;;;;;13.88;12.43;;;;;;;20.80;70.46;97517.45;1610613;87;25864;-75
2022/08/06 08:27:12;;;;;;;14.18;12.78;;;;;;;20.80;70.53;97517.45;1632485;87;27408;-75
2022/08/06 08:29:41;;;;;;;13.60;12.20;;;;;;;20.81;70.52;97509.50;1632404;87;25829;-74
2022/08/06 08:32:09;;;;;;;13.62;12.33;;;;;;;20.79;70.46;97511.69;1632290;87;25786;-75
2022/08/06 08:34:36;;;;;;;14.35;12.28;;;;;;;20.76;70.62;97517.74;1632376;87;25741;-74
2022/08/06 08:37:03;;;;;;;18.35;14.50;;;;;;;20.76;70.73;97515.00;1647466;83;25741;-75
2022/08/06 08:39:30;;;;;;;14.47;13.08;;;;;;;20.79;70.95;97524.03;1718935;83;27226;-75
2022/08/06 08:42:19;;;;;;;16.85;13.72;;;;;;;20.80;71.10;97516.08;1716911;83;25874;-75
2022/08/06 08:44:49;;;;;;;14.35;12.65;;;;;;;20.78;71.26;97520.46;1754318;81;25783;-75
2022/08/06 08:47:18;;;;;;;13.50;12.25;;;;;;;20.82;71.38;97522.12;1726039;83;26600;-75
2022/08/06 08:49:49;;;;;;;13.75;12.37;;;;;;;20.86;71.45;97525.97;1726380;83;25753;-75
2022/08/06 08:52:24;;;;;;;13.43;11.50;;;;;;;20.91;71.38;97524.58;1722897;83;27370;-75
2022/08/06 08:54:55;;;;;;;12.90;11.60;;;;;;;20.99;71.28;97524.05;1726194;83;25706;-75
2022/08/06 08:57:22;;;;;;;12.63;11.20;;;;;;;21.08;71.26;97530.63;1723500;83;25720;-75
2022/08/06 08:59:49;;;;;;;11.68;10.68;;;;;;;21.13;71.18;97535.30;1726199;83;25739;-75
2022/08/06 09:02:17;;;;;;;13.18;11.33;;;;;;;21.15;71.19;97535.27;1726325;83;25931;-75
2022/08/06 09:04:44;;;;;;;10.80;9.70;;;;;;;21.11;70.97;97536.94;1726278;83;27468;-75
2022/08/06 09:07:11;;;;;;;12.30;10.38;;;;;;;21.09;70.98;97546.55;1707584;83;25447;-75
2022/08/06 09:09:39;;;;;;;11.60;10.40;;;;;;;21.02;70.99;97538.57;1708064;83;25661;-75
2022/08/06 09:12:07;;;;;;;11.85;10.40;;;;;;;21.01;71.06;97549.27;1707956;84;25835;-75
2022/08/06 09:14:35;;;;;;;11.60;9.43;;;;;;;20.96;71.08;97552.58;1708117;84;25400;-75
2022/08/06 09:17:05;;;;;;;14.10;9.93;;;;;;;20.96;71.05;97552.03;1707940;84;28210;-75
2022/08/06 09:19:33;;;;;;;16.32;11.12;;;;;;;20.98;71.14;97561.37;1708016;84;25761;-75
2022/08/06 09:22:00;;;;;;;15.90;13.30;;;;;;;20.91;71.54;97554.77;1708092;84;25795;-75
2022/08/06 09:24:27;;;;;;;13.03;10.50;;;;;;;20.91;71.54;97554.77;1708090;84;25768;-75
2022/08/06 09:27:12;;;;;;;11.90;10.63;;;;;;;20.86;71.50;97563.02;1708048;83;25472;-75
2022/08/06 09:29:59;;;;;;;12.65;9.75;;;;;;;20.83;71.59;97562.17;1708009;84;27420;-75
2022/08/06 09:32:41;;;;;;;10.98;9.05;;;;;;;20.83;71.68;97570.41;1707900;84;25507;-75
2022/08/06 09:35:27;;;;;;;11.20;10.05;;;;;;;20.82;71.80;97568.75;1708143;84;26423;-75
2022/08/06 09:38:04;;;;;;;11.28;9.25;;;;;;;20.82;71.80;97563.27;1708135;84;25860;-75
2022/08/06 09:40:31;;;;;;;11.90;10.68;;;;;;;20.79;71.83;97570.67;1707639;83;25747;-75
2022/08/06 09:42:58;;;;;;;18.55;13.65;;;;;;;20.77;71.91;97574.25;1706975;84;27678;-75
2022/08/06 09:45:25;;;;;;;17.95;12.18;;;;;;;20.75;72.05;97577.27;1714797;83;25743;-75
2022/08/06 09:48:07;;;;;;;13.72;9.95;;;;;;;20.72;72.24;97583.29;1714871;83;25716;-75
2022/08/06 09:50:45;;;;;;;13.85;10.55;;;;;;;20.67;72.21;97579.70;1715221;83;25438;-75
2022/08/06 09:53:13;;;;;;;12.90;10.03;;;;;;;20.67;72.44;97583.81;1715219;83;25339;-75
2022/08/06 09:55:40;;;;;;;11.20;9.73;;;;;;;20.69;72.43;97588.48;1715027;83;27447;-75
2022/08/06 09:58:07;;;;;;;10.13;9.23;;;;;;;20.70;72.47;97582.73;1715121;83;25692;-75
2022/08/06 10:00:37;;;;;;;9.73;8.73;;;;;;;20.57;72.31;97557.20;1715053;83;25767;-75
2022/08/06 10:03:09;;;;;;;12.50;9.60;;;;;;;20.77;72.34;97590.14;1715161;83;25722;-76
2022/08/06 10:05:36;;;;;;;11.05;9.93;;;;;;;20.80;72.40;97584.66;1715188;83;25564;-76
2022/08/06 10:08:18;;;;;;;13.65;9.48;;;;;;;20.81;72.29;97589.88;1715002;83;27452;-76
2022/08/06 10:10:49;;;;;;;9.63;8.43;;;;;;;20.83;72.35;97589.61;1715193;83;25752;-76
2022/08/06 10:13:26;;;;;;;8.28;7.47;;;;;;;20.87;72.22;97585.23;1715390;83;25732;-76
2022/08/06 10:15:55;;;;;;;9.13;8.13;;;;;;;20.92;71.90;97589.89;1715091;83;25723;-76
2022/08/06 10:18:41;;;;;;;8.03;7.30;;;;;;;20.93;71.88;97588.80;1715063;83;25737;-76
2022/08/06 10:21:17;;;;;;;231.93;189.22;;;;;;;20.97;71.83;97596.22;1715237;83;26924;-76
2022/08/06 10:23:47;;;;;;;90.20;70.72;;;;;;;20.99;71.80;97598.14;1714948;83;25973;-75
2022/08/06 10:26:21;;;;;;;19.80;14.50;;;;;;;21.01;71.86;97598.67;1613654;87;25873;-76
2022/08/06 10:28:51;;;;;;;13.65;11.63;;;;;;;21.06;71.66;97602.80;1610399;88;26304;-76
2022/08/06 10:31:19;;;;;;;9.30;8.30;;;;;;;21.05;71.71;97602.52;1613549;88;25382;-76
2022/08/06 10:34:00;;;;;;;14.80;8.58;;;;;;;21.10;71.64;97609.95;1613540;87;27451;-76
2022/08/06 10:36:43;;;;;;;9.43;8.50;;;;;;;21.15;71.57;97611.30;1613422;88;25784;-76
2022/08/06 10:39:11;;;;;;;10.48;8.08;;;;;;;21.19;71.47;97610.52;1543657;91;25839;-78
2022/08/06 10:41:40;;;;;;;8.55;7.65;;;;;;;21.17;71.41;97615.42;1539249;92;26378;-77
2022/08/06 10:44:06;;;;;;;8.83;7.92;;;;;;;21.18;71.32;97612.99;1536530;93;25896;-78
2022/08/06 10:46:33;;;;;;;10.35;9.28;;;;;;;21.22;71.21;97613.83;1536440;93;27442;-78
2022/08/06 10:49:01;;;;;;;10.58;9.30;;;;;;;21.27;71.31;97617.38;1536406;93;25737;-78
2022/08/06 10:51:28;;;;;;;12.23;9.33;;;;;;;21.34;71.27;97613.00;1536330;93;25882;-78
2022/08/06 10:53:54;;;;;;;9.63;8.15;;;;;;;21.40;71.12;97616.83;1536493;92;26284;-78
2022/08/06 10:56:22;;;;;;;9.80;8.28;;;;;;;21.45;71.16;97621.50;1536346;93;25905;-77
2022/08/06 10:58:51;;;;;;;8.95;8.03;;;;;;;21.48;71.06;97622.33;1536410;93;27427;-78
2022/08/06 11:01:31;;;;;;;12.63;9.33;;;;;;;21.50;71.01;97619.56;1536323;93;25878;-78
2022/08/06 11:04:09;;;;;;;11.12;8.65;;;;;;;21.54;70.89;97624.78;1519939;94;25880;-78
2022/08/06 11:06:53;;;;;;;7.92;6.90;;;;;;;21.58;70.98;97623.69;1530088;93;25941;-78
2022/08/06 11:09:55;;;;;;;9.73;7.25;;;;;;;21.61;70.92;97626.44;1530413;92;25507;-78
2022/08/06 11:12:30;;;;;;;8.88;7.47;;;;;;;21.61;70.92;97626.44;1530349;93;27411;-78
2022/08/06 11:14:58;;;;;;;7.58;6.42;;;;;;;21.65;70.52;97629.71;1527840;92;25748;-78
2022/08/06 11:17:25;;;;;;;8.65;6.95;;;;;;;21.65;70.24;97626.96;1530180;93;25330;-78
2022/08/06 11:19:52;;;;;;;7.15;6.42;;;;;;;21.53;70.06;97609.95;1530356;93;26294;-78
2022/08/06 11:22:39;;;;;;;7.20;5.85;;;;;;;21.53;70.06;97609.95;1532672;92;25844;-79
2022/08/06 11:25:08;;;;;;;6.53;5.40;;;;;;;21.62;70.17;97623.94;1557371;90;27442;-80
2022/08/06 11:27:51;;;;;;;8.00;5.53;;;;;;;21.60;70.02;97625.61;1538193;93;25959;-78
2022/08/06 11:30:20;;;;;;;5.97;5.12;;;;;;;21.54;70.06;97631.65;1477193;95;25821;-78
2022/08/06 11:32:50;;;;;;;7.30;4.87;;;;;;;21.54;70.06;97631.65;1476984;95;26565;-78
2022/08/06 11:35:40;;;;;;;5.60;4.70;;;;;;;21.38;69.34;97614.08;1439444;97;25801;-78
2022/08/06 11:38:10;;;;;;;5.67;4.97;;;;;;;21.38;69.34;97614.08;1483869;96;27651;-78
2022/08/06 11:40:59;;;;;;;5.20;4.72;;;;;;;21.45;69.50;97640.72;1481285;94;25791;-78
2022/08/06 11:43:50;;;;;;;7.22;4.75;;;;;;;21.27;69.63;97620.67;1456839;98;25943;-78